Número do voo
TLA3022
Partida Destino
Afonso Pena Airport (SBCT) Ver Cartas Aéreas

Salgado Filho Airport (SBPA) Ver Cartas Aéreas

Hora de Partida Hora de Chegada
09:00 10:25
Aeronave Distância
B733 287nm
METAR do Aeroporto de Partida METAR do Aeroporto de Destino
SBCT 260600Z 02005KT 350V050 9999 SCT004 BKN009 BKN060 20/20 Q1011 SBPA 260600Z VRB02KT 6000 -RA BKN011 OVC015 21/21 Q1007
Rota

UZ5

SkyVector

 

Notas

Dados adicionais









Copyright © 2020 Todos os direitos reservados. Tropical Linhas Aereas Virtuais

Cms by phpVMS